Time;durP1;ratioP1;P1;durP2;ratioP2;P2;SDS_P1;SDS_P2;PMS_P1;PMS_P2;Temp;Humidity;BMP_temperature;BMP_pressure;BME280_temperature;BME280_humidity;BME280_pressure;Samples;Min_cycle;Max_cycle;Signal;HPM_P1;HPM_P2
2023/02/18 00:01:42;;;;;;;42.30;30.10;;;;;;;0.39;100.00;99258.33;105813;1256;74869;-72
2023/02/18 00:04:11;;;;;;;48.30;30.80;;;;;;;0.39;100.00;99255.36;105657;1260;67243;-73
2023/02/18 00:06:40;;;;;;;50.60;31.90;;;;;;;0.38;100.00;99254.33;105762;1261;71648;-71
2023/02/18 00:09:09;;;;;;;46.90;29.90;;;;;;;0.37;100.00;99242.05;105923;1257;62771;-71
2023/02/18 00:11:38;;;;;;;55.80;34.70;;;;;;;0.35;100.00;99235.69;105947;1256;61291;-71
2023/02/18 00:14:10;;;;;;;50.30;32.70;;;;;;;0.36;100.00;99225.06;105732;1255;72216;-72
2023/02/18 00:16:40;;;;;;;47.70;28.50;;;;;;;0.37;100.00;99219.23;105790;1256;69773;-70
2023/02/18 00:19:17;;;;;;;45.40;29.10;;;;;;;0.38;100.00;99211.94;105885;1256;73539;-73
2023/02/18 00:21:47;;;;;;;45.00;27.80;;;;;;;0.38;100.00;99200.05;105698;1256;60627;-71
2023/02/18 00:24:16;;;;;;;51.20;28.30;;;;;;;0.38;100.00;99196.02;105710;1261;60374;-73
2023/02/18 00:26:45;;;;;;;50.60;31.00;;;;;;;0.38;100.00;99187.77;105606;1262;74015;-69
2023/02/18 00:29:13;;;;;;;45.50;27.80;;;;;;;0.41;100.00;99177.48;105758;1260;66889;-71
2023/02/18 00:31:44;;;;;;;56.40;32.30;;;;;;;0.41;100.00;99170.81;105494;1264;73018;-72
2023/02/18 00:34:13;;;;;;;54.40;32.10;;;;;;;0.42;100.00;99168.73;105736;1261;62737;-73
2023/02/18 00:36:42;;;;;;;39.50;26.30;;;;;;;0.44;100.00;99154.46;106006;1259;61192;-72
2023/02/18 00:39:11;;;;;;;61.50;32.60;;;;;;;0.45;100.00;99143.64;106776;1256;75247;-74
2023/02/18 00:41:40;;;;;;;58.30;33.50;;;;;;;0.48;100.00;99133.11;106462;1256;68489;-72
2023/02/18 00:44:09;;;;;;;54.80;33.10;;;;;;;0.47;100.00;99127.71;106849;1260;72281;-72
2023/02/18 00:46:38;;;;;;;59.50;34.40;;;;;;;0.49;100.00;99118.67;106023;1255;61497;-75
2023/02/18 00:49:09;;;;;;;64.10;38.40;;;;;;;0.50;100.00;99110.70;105561;1256;60525;-75
2023/02/18 00:51:38;;;;;;;59.90;33.40;;;;;;;0.51;100.00;99102.28;105637;1261;74107;-70
2023/02/18 00:54:08;;;;;;;55.70;31.50;;;;;;;0.53;100.00;99094.95;105871;1260;67515;-72
2023/02/18 00:56:37;;;;;;;60.90;33.20;;;;;;;0.56;100.00;99084.55;105826;1256;73051;-84
2023/02/18 00:59:05;;;;;;;67.90;32.50;;;;;;;0.57;100.00;99075.75;107250;1263;61880;-77
2023/02/18 01:01:35;;;;;;;67.30;36.70;;;;;;;0.58;100.00;99063.81;107086;1257;60475;-80
2023/02/18 01:04:07;;;;;;;;;;;;;;;0.60;100.00;99058.98;106428;1263;73748;-81
2023/02/18 01:06:37;;;;;;;69.80;34.30;;;;;;;0.61;100.00;99050.65;106745;1256;67339;-82
2023/02/18 01:09:05;;;;;;;63.50;30.70;;;;;;;0.64;100.00;99041.85;106784;1256;73147;-86
2023/02/18 01:11:33;;;;;;;62.60;35.10;;;;;;;0.69;100.00;99034.82;106773;1256;61821;-78
2023/02/18 01:14:02;;;;;;;57.60;33.80;;;;;;;0.72;100.00;99027.81;106638;1261;60592;-84
2023/02/18 01:16:31;;;;;;;60.30;35.30;;;;;;;0.75;100.00;99019.89;106573;1256;74594;-75
2023/02/18 01:18:59;;;;;;;64.10;36.50;;;;;;;0.77;100.00;99009.90;106629;1256;68216;-75
2023/02/18 01:21:28;;;;;;;65.40;37.00;;;;;;;0.82;100.00;99005.23;106385;1259;71511;-71
2023/02/18 01:23:57;;;;;;;68.00;34.10;;;;;;;0.83;100.00;98994.27;105975;1256;63073;-70
2023/02/18 01:26:25;;;;;;;63.90;33.20;;;;;;;0.84;100.00;98981.85;106496;1256;61117;-71
2023/02/18 01:28:55;;;;;;;70.30;36.00;;;;;;;0.85;100.00;98978.96;105983;1256;75447;-73
2023/02/18 01:31:25;;;;;;;77.40;36.20;;;;;;;0.89;100.00;98969.35;105994;1261;67513;-72
2023/02/18 01:33:53;;;;;;;58.40;31.70;;;;;;;0.91;100.00;98951.06;105367;1256;74514;-73
2023/02/18 01:36:22;;;;;;;61.30;35.20;;;;;;;0.92;100.00;98946.58;105830;1256;61832;-72
2023/02/18 01:38:50;;;;;;;65.90;34.20;;;;;;;0.93;100.00;98942.88;105841;1256;60645;-74
2023/02/18 01:41:19;;;;;;;62.30;34.50;;;;;;;0.93;100.00;98929.63;105684;1256;73176;-79
2023/02/18 01:43:48;;;;;;;63.80;33.40;;;;;;;0.96;100.00;98923.61;105614;1256;68718;-76
2023/02/18 01:46:18;;;;;;;60.50;32.80;;;;;;;0.96;100.00;98915.09;105646;1256;74507;-77
2023/02/18 01:48:50;;;;;;;63.60;33.30;;;;;;;0.97;100.00;98905.59;105757;1258;62061;-80
2023/02/18 01:51:23;;;;;;;66.30;33.40;;;;;;;0.99;100.00;98897.78;105636;1257;62101;-77
2023/02/18 01:53:55;;;;;;;54.30;32.10;;;;;;;1.01;100.00;98891.88;105744;1261;74686;-76
2023/02/18 01:56:27;;;;;;;64.40;37.20;;;;;;;1.02;100.00;98886.52;105667;1256;69440;-76
2023/02/18 01:58:57;;;;;;;51.40;26.50;;;;;;;1.04;100.00;98871.82;105405;1256;74227;-78
2023/02/18 02:01:25;;;;;;;58.80;36.90;;;;;;;1.05;100.00;98864.77;105574;1256;61001;-81
2023/02/18 02:03:54;;;;;;;66.80;35.90;;;;;;;1.04;100.00;98854.23;105456;1256;62157;-76
2023/02/18 02:06:22;;;;;;;66.30;34.60;;;;;;;1.05;100.00;98846.13;105798;1256;73468;-75
2023/02/18 02:08:52;;;;;;;55.10;28.60;;;;;;;1.04;100.00;98842.58;105664;1256;69905;-76
2023/02/18 02:11:40;;;;;;;68.00;33.90;;;;;;;1.00;100.00;98832.66;105826;1260;72206;-77
2023/02/18 02:14:34;;;;;;;66.10;36.20;;;;;;;0.98;100.00;98827.89;105739;1256;62746;-76
2023/02/18 02:17:36;;;;;;;62.20;30.70;;;;;;;0.98;100.00;98822.43;105672;1262;61792;-78
2023/02/18 02:20:18;;;;;;;65.80;31.30;;;;;;;0.98;100.00;98819.66;105740;1261;73245;-77
2023/02/18 02:23:04;;;;;;;62.10;32.20;;;;;;;0.98;100.00;98807.01;105568;1256;67708;-78
2023/02/18 02:25:51;;;;;;;62.00;32.00;;;;;;;0.96;100.00;98801.80;105564;1256;72698;-76
2023/02/18 02:28:52;;;;;;;58.20;31.90;;;;;;;0.97;100.00;98795.73;105989;1259;62197;-77
2023/02/18 02:31:23;;;;;;;56.70;29.70;;;;;;;0.99;100.00;98788.19;105471;1264;60490;-77
2023/02/18 02:33:54;;;;;;;66.10;32.70;;;;;;;0.98;100.00;98782.97;105874;1260;74723;-77
2023/02/18 02:36:27;;;;;;;58.60;29.80;;;;;;;0.98;100.00;98775.27;105804;1256;67332;-77
2023/02/18 02:39:08;;;;;;;63.40;35.60;;;;;;;0.98;100.00;98766.92;105669;1263;74535;-76
2023/02/18 02:42:12;;;;;;;65.30;34.30;;;;;;;0.97;100.00;98760.13;105606;1256;62696;-76
2023/02/18 02:45:12;;;;;;;56.80;31.90;;;;;;;0.96;100.00;98747.15;105666;1257;60361;-76
2023/02/18 02:48:10;;;;;;;58.40;29.80;;;;;;;0.97;100.00;98731.94;105608;1261;74381;-77
2023/02/18 02:51:01;;;;;;;58.40;32.20;;;;;;;0.99;100.00;98727.63;105646;1256;67645;-77
2023/02/18 02:53:30;;;;;;;43.40;26.00;;;;;;;1.01;100.00;98722.97;105724;1260;72730;-78
2023/02/18 02:55:58;;;;;;;49.30;28.80;;;;;;;0.99;100.00;98720.70;105578;1264;63270;-75
2023/02/18 02:58:27;;;;;;;43.20;24.80;;;;;;;1.01;100.00;98722.44;105492;1256;60368;-76
2023/02/18 03:01:01;;;;;;;55.60;28.80;;;;;;;1.02;100.00;98716.23;105504;1263;75615;-78
2023/02/18 03:03:56;;;;;;;57.40;32.40;;;;;;;1.04;100.00;98713.39;105771;1261;69785;-77
2023/02/18 03:06:37;;;;;;;57.20;30.10;;;;;;;1.06;100.00;98704.83;105758;1261;73302;-75
2023/02/18 03:09:41;;;;;;;46.10;26.90;;;;;;;1.12;100.00;98704.86;105636;1261;60496;-75
2023/02/18 03:12:24;;;;;;;51.20;28.80;;;;;;;1.16;100.00;98697.09;105438;1262;60612;-76
2023/02/18 03:15:03;;;;;;;52.90;30.00;;;;;;;1.20;100.00;98688.47;105766;1260;74281;-75
2023/02/18 03:17:40;;;;;;;49.60;29.10;;;;;;;1.21;100.00;98683.73;105644;1261;69255;-76
2023/02/18 03:20:24;;;;;;;53.00;28.80;;;;;;;1.27;100.00;98674.61;105439;1261;74307;-75
2023/02/18 03:22:53;;;;;;;47.70;29.30;;;;;;;1.35;100.00;98674.27;105468;1256;61107;-76
2023/02/18 03:25:21;;;;;;;38.50;23.50;;;;;;;1.35;100.00;98662.31;105540;1260;60447;-76
2023/02/18 03:27:53;;;;;;;44.70;25.20;;;;;;;1.38;100.00;98656.00;105467;1261;73114;-76
2023/02/18 03:30:28;;;;;;;47.90;26.50;;;;;;;1.40;100.00;98653.20;105835;1256;68981;-76
2023/02/18 03:32:59;;;;;;;48.90;27.30;;;;;;;1.44;100.00;98652.80;105662;1259;73664;-76
2023/02/18 03:35:28;;;;;;;50.80;31.60;;;;;;;1.50;100.00;98644.84;105425;1255;62531;-79
2023/02/18 03:38:16;;;;;;;46.90;28.30;;;;;;;1.56;100.00;98643.65;105160;1256;60559;-77
2023/02/18 03:40:44;;;;;;;49.60;29.70;;;;;;;1.63;100.00;98637.88;105761;1256;73933;-78
2023/02/18 03:43:14;;;;;;;53.60;29.10;;;;;;;1.64;100.00;98629.14;105846;1256;69753;-79
2023/02/18 03:45:42;;;;;;;52.50;30.00;;;;;;;1.66;100.00;98624.52;105637;1256;73346;-78
2023/02/18 03:48:12;;;;;;;56.50;31.10;;;;;;;1.65;100.00;98622.23;105772;1257;62016;-78
2023/02/18 03:50:41;;;;;;;49.10;30.20;;;;;;;1.66;100.00;98617.02;105834;1256;61926;-79
2023/02/18 03:53:11;;;;;;;47.80;27.50;;;;;;;1.73;100.00;98604.27;105669;1256;73491;-79
2023/02/18 03:55:41;;;;;;;48.00;31.60;;;;;;;1.78;100.00;98603.61;105489;1259;67765;-81
2023/02/18 03:58:09;;;;;;;51.10;32.50;;;;;;;1.81;100.00;98588.60;105494;1261;72606;-81
2023/02/18 04:00:39;;;;;;;48.80;28.70;;;;;;;1.86;100.00;98584.36;105710;1260;60449;-79
2023/02/18 04:03:08;;;;;;;46.40;30.40;;;;;;;1.87;100.00;98577.38;105335;1256;60513;-77
2023/02/18 04:05:38;;;;;;;41.50;23.90;;;;;;;1.88;100.00;98566.59;105427;1256;74338;-77
2023/02/18 04:08:06;;;;;;;43.70;27.60;;;;;;;1.85;100.00;98564.22;105643;1256;67995;-77
2023/02/18 04:10:36;;;;;;;51.60;29.30;;;;;;;1.83;100.00;98556.25;105619;1255;71266;-80
2023/02/18 04:13:05;;;;;;;45.70;28.60;;;;;;;1.81;100.00;98543.69;105817;1256;62064;-79
2023/02/18 04:15:33;;;;;;;49.80;27.00;;;;;;;1.84;100.00;98546.48;105616;1261;61861;-78
2023/02/18 04:18:02;;;;;;;46.50;28.20;;;;;;;1.88;100.00;98544.20;105806;1267;72784;-79
2023/02/18 04:20:30;;;;;;;44.60;26.20;;;;;;;1.93;100.00;98539.16;105520;1256;68561;-78
2023/02/18 04:22:58;;;;;;;43.40;27.00;;;;;;;1.95;100.00;98544.73;105830;1260;72749;-79
2023/02/18 04:25:26;;;;;;;44.90;28.00;;;;;;;1.96;100.00;98532.14;105530;1261;60687;-77
2023/02/18 04:27:56;;;;;;;42.80;26.90;;;;;;;1.97;100.00;98520.02;105614;1256;60574;-79
2023/02/18 04:30:24;;;;;;;50.70;29.20;;;;;;;1.95;100.00;98517.00;105388;1263;72959;-78
2023/02/18 04:32:53;;;;;;;41.30;25.60;;;;;;;1.95;100.00;98504.19;105450;1256;69914;-78
2023/02/18 04:35:21;;;;;;;44.00;28.10;;;;;;;1.92;100.00;98504.58;105570;1260;72364;-77
2023/02/18 04:37:51;;;;;;;40.90;26.00;;;;;;;1.91;100.00;98500.45;105471;1256;61168;-76
2023/02/18 04:40:19;;;;;;;46.60;28.80;;;;;;;1.90;100.00;98487.29;105466;1261;61155;-74
2023/02/18 04:42:47;;;;;;;40.10;26.30;;;;;;;1.91;100.00;98481.86;105631;1259;74785;-75
2023/02/18 04:45:16;;;;;;;41.70;25.50;;;;;;;1.92;100.00;98494.35;105866;1256;67967;-75
2023/02/18 04:47:44;;;;;;;36.10;22.10;;;;;;;1.96;100.00;98473.61;105813;1256;72772;-75
2023/02/18 04:50:12;;;;;;;42.30;24.40;;;;;;;1.99;100.00;98459.80;105830;1256;60388;-74
2023/02/18 04:52:42;;;;;;;40.20;25.90;;;;;;;1.99;100.00;98465.75;105705;1256;61252;-73
2023/02/18 04:55:11;;;;;;;38.70;24.50;;;;;;;2.00;100.00;98471.24;105256;1260;75283;-73
2023/02/18 04:57:39;;;;;;;47.90;28.00;;;;;;;2.04;100.00;98463.15;105039;1261;66808;-76
2023/02/18 05:00:08;;;;;;;34.40;24.30;;;;;;;2.07;100.00;98452.02;105580;1260;73207;-77
2023/02/18 05:02:37;;;;;;;37.60;23.70;;;;;;;2.12;100.00;98440.73;105823;1256;60484;-80
2023/02/18 05:05:06;;;;;;;39.00;24.10;;;;;;;2.14;100.00;98450.08;105840;1256;61103;-80
2023/02/18 05:07:35;;;;;;;35.40;21.40;;;;;;;2.16;100.00;98436.91;105877;1260;74686;-80
2023/02/18 05:10:03;;;;;;;37.10;23.40;;;;;;;2.16;100.00;98427.58;105631;1261;66943;-81
2023/02/18 05:20:52;;;;;;;35.80;23.90;;;;;;;2.29;100.00;98415.54;103255;1285;600671;-81
2023/02/18 05:23:20;;;;;;;42.90;25.00;;;;;;;2.30;100.00;98396.68;105093;1272;61463;-80
2023/02/18 05:25:49;;;;;;;37.80;24.00;;;;;;;2.32;100.00;98396.73;105881;1259;61696;-78
2023/02/18 05:28:18;;;;;;;33.50;22.60;;;;;;;2.33;100.00;98397.86;105902;1254;74070;-79
2023/02/18 05:30:47;;;;;;;36.00;27.20;;;;;;;2.30;100.00;98389.63;105909;1254;68817;-79
2023/02/18 05:33:15;;;;;;;41.30;25.50;;;;;;;2.29;100.00;98383.39;105961;1259;74351;-77
2023/02/18 05:35:43;;;;;;;37.10;25.00;;;;;;;2.29;100.00;98378.41;105633;1258;531672;-77
2023/02/18 05:38:11;;;;;;;37.30;24.90;;;;;;;2.34;100.00;98372.05;105935;1256;60107;-78
2023/02/18 05:40:39;;;;;;;37.50;24.50;;;;;;;2.37;100.00;98363.42;105971;1254;71283;-77
2023/02/18 05:43:07;;;;;;;40.20;24.20;;;;;;;2.37;100.00;98381.87;105890;1254;69302;-84
2023/02/18 05:45:37;;;;;;;37.40;25.10;;;;;;;2.41;100.00;98371.22;105941;1258;74330;-81
2023/02/18 05:48:05;;;;;;;36.40;23.10;;;;;;;2.45;100.00;98355.61;105840;1260;61889;-80
2023/02/18 05:50:33;;;;;;;39.20;25.50;;;;;;;2.47;100.00;98349.08;105919;1253;60083;-79
2023/02/18 05:53:01;;;;;;;38.90;24.20;;;;;;;2.49;100.00;98362.45;105978;1257;72782;-82
2023/02/18 05:55:29;;;;;;;40.50;24.90;;;;;;;2.52;100.00;98356.98;105873;1255;67062;-81
2023/02/18 05:57:58;;;;;;;38.00;25.60;;;;;;;2.58;100.00;98334.61;105773;1257;72326;-81
2023/02/18 06:00:28;;;;;;;40.90;27.00;;;;;;;2.64;100.00;98342.87;105765;1254;59718;-80
2023/02/18 06:02:57;;;;;;;40.50;26.40;;;;;;;2.71;100.00;98342.87;105885;1253;60568;-78
2023/02/18 06:05:26;;;;;;;39.70;26.40;;;;;;;2.76;100.00;98330.23;105823;1254;75421;-77
2023/02/18 06:07:54;;;;;;;41.80;26.90;;;;;;;2.77;100.00;98329.20;106048;1257;68805;-80
2023/02/18 06:10:24;;;;;;;50.10;30.60;;;;;;;2.80;100.00;98330.68;105872;1259;71068;-81
2023/02/18 06:12:52;;;;;;;42.90;29.10;;;;;;;2.86;100.00;98324.87;105891;1254;61721;-79
2023/02/18 06:15:21;;;;;;;38.80;25.50;;;;;;;2.91;100.00;98318.29;105760;1261;60908;-78
2023/02/18 06:17:49;;;;;;;36.70;24.40;;;;;;;2.96;100.00;98319.88;105680;1255;72923;-77
2023/02/18 06:20:17;;;;;;;38.40;25.30;;;;;;;3.02;100.00;98315.42;105766;1253;69616;-78
2023/02/18 06:22:46;;;;;;;32.90;22.00;;;;;;;3.06;100.00;98313.02;106136;1254;74509;-80
2023/02/18 06:25:14;;;;;;;41.50;26.40;;;;;;;3.11;100.00;98312.48;105695;1255;60095;-83
2023/02/18 06:27:43;;;;;;;41.90;27.60;;;;;;;3.17;100.00;98309.52;105902;1253;60924;-80
2023/02/18 06:30:12;;;;;;;33.40;21.30;;;;;;;3.24;100.00;98303.13;105897;1257;72784;-80
2023/02/18 06:32:40;;;;;;;37.90;25.40;;;;;;;3.31;100.00;98299.59;106022;1254;68784;-83
2023/02/18 06:35:08;;;;;;;37.90;25.00;;;;;;;3.39;100.00;98296.76;105636;1253;72267;-79
2023/02/18 06:37:37;;;;;;;39.50;25.70;;;;;;;3.46;100.00;98299.63;105915;1257;61984;-82
2023/02/18 06:40:07;;;;;;;38.50;24.00;;;;;;;3.53;100.00;98300.27;105864;1253;61714;-79
2023/02/18 06:42:35;;;;;;;43.40;28.80;;;;;;;3.57;100.00;98303.27;105801;1257;73285;-78
2023/02/18 06:45:07;;;;;;;37.70;24.20;;;;;;;3.62;100.00;98305.73;105857;1254;68820;-78
2023/02/18 06:47:35;;;;;;;37.20;24.00;;;;;;;3.68;100.00;98305.31;105813;1254;72037;-79
2023/02/18 06:50:03;;;;;;;32.40;21.40;;;;;;;3.75;100.00;98298.85;105790;1261;61924;-78
2023/02/18 06:52:33;;;;;;;32.20;23.20;;;;;;;3.82;100.00;98295.08;106031;1257;59558;-82
2023/02/18 06:55:01;;;;;;;36.00;25.10;;;;;;;3.89;100.00;98293.33;105745;1260;74713;-78
2023/02/18 06:57:30;;;;;;;39.00;27.70;;;;;;;3.97;100.00;98292.52;105920;1255;69777;-80
2023/02/18 09:03:44;;;;;;;13.00;4.20;;;;;;;6.56;99.14;98314.73;103832;1287;601235;-81
2023/02/18 09:06:13;;;;;;;7.00;4.00;;;;;;;6.57;98.27;98313.24;105548;1272;62727;-82
2023/02/18 09:08:43;;;;;;;7.50;3.30;;;;;;;6.63;97.51;98318.20;105251;1267;61182;-81
2023/02/18 09:11:17;;;;;;;7.30;3.40;;;;;;;6.71;96.86;98307.23;105666;1267;72774;-81
2023/02/18 09:13:45;;;;;;;5.80;2.90;;;;;;;6.78;95.09;98323.36;105302;1267;69516;-81
2023/02/18 09:16:18;;;;;;;9.00;3.50;;;;;;;6.87;94.57;98303.91;105893;1261;515341;-81
2023/02/18 09:18:47;;;;;;;3.20;2.90;;;;;;;6.96;93.93;98311.27;106552;1252;61815;-78
2023/02/18 09:21:19;;;;;;;3.40;3.10;;;;;;;7.03;92.18;98329.21;105955;1254;61011;-81
2023/02/18 09:23:48;;;;;;;5.10;2.30;;;;;;;7.07;91.43;98311.58;106390;1254;71221;-77
2023/02/18 09:26:20;;;;;;;6.00;2.70;;;;;;;7.08;91.26;98324.21;106300;1254;69809;-77
2023/02/18 09:28:49;;;;;;;5.70;2.50;;;;;;;7.06;92.63;98307.57;106167;1259;73364;-80
2023/02/18 09:31:19;;;;;;;5.20;3.20;;;;;;;7.03;93.75;98312.58;105859;1257;63233;-75
2023/02/18 09:33:51;;;;;;;6.40;3.50;;;;;;;6.98;95.04;98301.34;105725;1263;60714;-77
2023/02/18 09:36:19;;;;;;;8.90;5.40;;;;;;;6.93;96.32;98303.35;105935;1259;74255;-85
2023/02/18 09:38:48;;;;;;;7.30;3.20;;;;;;;6.87;97.33;98303.73;105730;1257;69826;-78
2023/02/18 09:41:16;;;;;;;4.70;3.70;;;;;;;6.83;97.97;98296.98;105729;1257;74178;-75
2023/02/18 09:43:47;;;;;;;5.10;2.90;;;;;;;6.79;98.76;98297.57;105791;1256;61189;-77
2023/02/18 09:46:29;;;;;;;4.10;3.20;;;;;;;6.76;98.84;98302.66;105961;1259;61708;-75
2023/02/18 09:49:02;;;;;;;5.80;3.60;;;;;;;6.74;98.86;98300.20;105975;1254;73628;-75
2023/02/18 09:51:33;;;;;;;5.90;3.00;;;;;;;6.78;99.17;98296.70;105907;1261;67223;-73
2023/02/18 09:54:01;;;;;;;7.30;4.10;;;;;;;6.82;98.18;98318.13;106231;1254;72426;-84
2023/02/18 09:56:34;;;;;;;3.30;2.50;;;;;;;6.82;96.87;98317.66;106117;1254;62120;-81
2023/02/18 09:59:05;;;;;;;3.40;2.60;;;;;;;6.83;96.14;98317.29;105816;1257;61126;-79
2023/02/18 10:01:36;;;;;;;5.70;3.60;;;;;;;6.81;95.50;98319.48;105830;1262;74557;-79
2023/02/18 10:04:12;;;;;;;6.50;2.70;;;;;;;6.80;94.06;98309.92;105875;1257;69582;-83
2023/02/18 10:06:41;;;;;;;7.10;3.20;;;;;;;6.83;93.11;98313.50;105785;1257;73511;-79
2023/02/18 10:09:30;;;;;;;9.60;3.20;;;;;;;6.88;93.02;98312.13;105857;1255;61961;-81
2023/02/18 10:12:07;;;;;;;4.60;3.00;;;;;;;6.93;92.24;98319.05;105905;1257;61171;-79
2023/02/18 10:14:38;;;;;;;7.50;3.20;;;;;;;6.98;91.34;98305.13;105728;1257;73075;-75
2023/02/18 10:17:07;;;;;;;8.60;3.00;;;;;;;7.06;91.06;98294.11;105764;1264;66953;-83
2023/02/18 10:19:37;;;;;;;8.10;3.10;;;;;;;7.15;89.76;98306.06;106049;1257;74640;-81
2023/02/18 10:22:07;;;;;;;7.80;3.80;;;;;;;7.23;88.06;98317.38;105803;1254;62035;-77
2023/02/18 10:24:47;;;;;;;14.00;3.50;;;;;;;7.28;87.34;98310.02;105863;1254;61183;-78
2023/02/18 10:27:32;;;;;;;6.00;2.90;;;;;;;7.30;87.56;98310.51;105889;1261;73566;-78
2023/02/18 10:30:21;;;;;;;7.00;3.90;;;;;;;7.32;87.49;98306.71;105916;1260;67528;-78
2023/02/18 10:33:21;;;;;;;8.60;3.60;;;;;;;7.33;87.01;98311.92;106002;1255;73046;-76
2023/02/18 10:35:53;;;;;;;5.20;2.80;;;;;;;7.30;87.02;98324.63;105719;1257;61787;-80
2023/02/18 10:38:32;;;;;;;4.20;3.10;;;;;;;7.26;87.37;98332.58;106065;1257;60887;-79
2023/02/18 10:41:13;;;;;;;7.40;2.50;;;;;;;7.19;88.18;98304.21;105930;1257;74732;-79
2023/02/18 10:44:16;;;;;;;5.10;3.10;;;;;;;7.12;88.26;98332.41;106095;1259;66555;-76
2023/02/18 10:46:54;;;;;;;4.70;2.80;;;;;;;7.02;88.96;98336.54;105864;1256;73213;-81
2023/02/18 10:49:55;;;;;;;6.00;3.10;;;;;;;6.88;90.63;98335.88;105990;1262;60018;-78
2023/02/18 10:52:28;;;;;;;5.90;3.30;;;;;;;6.69;91.87;98325.19;106005;1260;62186;-80
2023/02/18 10:55:09;;;;;;;11.20;3.60;;;;;;;6.57;93.14;98314.73;105897;1265;74886;-78
2023/02/18 10:57:49;;;;;;;8.60;4.70;;;;;;;6.49;94.33;98308.11;105874;1263;68073;-79
2023/02/18 11:00:22;;;;;;;7.70;3.70;;;;;;;6.45;94.99;98305.78;105918;1257;72812;-81
2023/02/18 11:03:21;;;;;;;7.00;2.80;;;;;;;6.45;95.52;98306.06;105840;1265;62252;-76
2023/02/18 11:05:55;;;;;;;4.50;2.70;;;;;;;6.46;95.15;98304.91;105840;1261;60122;-80
2023/02/18 11:08:32;;;;;;;4.60;2.70;;;;;;;6.50;94.29;98309.67;105797;1257;72640;-72
2023/02/18 11:11:00;;;;;;;3.20;2.50;;;;;;;6.53;90.93;98316.37;105627;1257;68033;-71
2023/02/18 11:13:30;;;;;;;8.20;3.50;;;;;;;6.61;89.39;98319.04;105645;1257;72906;-73
2023/02/18 11:16:05;;;;;;;6.50;2.60;;;;;;;6.69;86.99;98301.79;105586;1258;62024;-72
2023/02/18 11:18:35;;;;;;;4.00;2.60;;;;;;;6.77;86.07;98319.98;105685;1257;60363;-77
2023/02/18 11:21:30;;;;;;;9.90;2.90;;;;;;;6.85;83.59;98320.35;105629;1257;73732;-75
2023/02/18 11:24:08;;;;;;;10.50;5.20;;;;;;;6.94;83.15;98337.08;105702;1256;69769;-75
2023/02/18 11:26:38;;;;;;;6.50;2.50;;;;;;;7.02;80.95;98319.31;105842;1257;73560;-76
2023/02/18 11:29:11;;;;;;;7.80;2.70;;;;;;;7.11;80.49;98306.64;105941;1257;60739;-76
2023/02/18 11:31:51;;;;;;;9.10;2.90;;;;;;;7.18;79.25;98310.03;105652;1254;60968;-73
2023/02/18 11:34:21;;;;;;;6.90;2.50;;;;;;;7.25;79.17;98296.90;105733;1255;73701;-73
2023/02/18 11:36:50;;;;;;;10.30;2.80;;;;;;;7.29;79.30;98300.23;105822;1260;66857;-73
2023/02/18 11:39:25;;;;;;;7.20;3.40;;;;;;;7.32;78.65;98299.65;105577;1262;73980;-74
2023/02/18 11:41:56;;;;;;;6.90;2.80;;;;;;;7.32;78.19;98299.87;105732;1257;59676;-71
2023/02/18 11:44:33;;;;;;;10.00;2.90;;;;;;;7.32;77.75;98306.45;105813;1255;60852;-70
2023/02/18 11:47:08;;;;;;;8.20;4.10;;;;;;;7.32;77.25;98304.27;105761;1260;74868;-81
2023/02/18 11:49:36;;;;;;;7.10;3.60;;;;;;;7.34;77.56;98293.78;105509;1255;69442;-74
2023/02/18 11:52:26;;;;;;;4.40;3.20;;;;;;;7.37;76.98;98302.02;105706;1261;73508;-71
2023/02/18 11:55:05;;;;;;;4.70;2.60;;;;;;;7.42;74.83;98315.58;105614;1257;62202;-74
2023/02/18 11:57:36;;;;;;;3.90;2.50;;;;;;;7.47;74.27;98302.27;105724;1257;61428;-75
2023/02/18 12:00:20;;;;;;;8.80;3.00;;;;;;;7.51;72.87;98304.42;105657;1257;72135;-81
2023/02/18 12:02:49;;;;;;;5.10;2.80;;;;;;;7.55;72.17;98309.56;105857;1254;66890;-75
2023/02/18 12:05:21;;;;;;;5.30;2.80;;;;;;;7.58;71.56;98303.16;105756;1260;74227;-76
2023/02/18 12:07:56;;;;;;;6.30;2.70;;;;;;;7.58;71.23;98305.66;105551;1257;60731;-78
2023/02/18 12:10:52;;;;;;;3.40;2.90;;;;;;;7.57;71.49;98296.16;105807;1255;61285;-75
2023/02/18 12:13:27;;;;;;;4.20;2.30;;;;;;;7.54;71.63;98300.52;105889;1260;74741;-75
2023/02/18 12:16:08;;;;;;;6.10;3.10;;;;;;;7.52;72.66;98325.60;105697;1258;69718;-75
2023/02/18 12:19:18;;;;;;;3.70;2.60;;;;;;;7.43;74.49;98329.70;105831;1260;74499;-79
2023/02/18 12:22:08;;;;;;;4.30;2.30;;;;;;;7.28;75.07;98326.28;105621;1261;61072;-80
2023/02/18 12:24:51;;;;;;;3.70;2.20;;;;;;;7.17;75.89;98316.60;105702;1259;59869;-77
2023/02/18 12:27:40;;;;;;;6.40;2.30;;;;;;;7.11;76.25;98310.27;105789;1262;74344;-71
2023/02/18 12:30:44;;;;;;;7.40;2.30;;;;;;;7.09;76.59;98303.80;105679;1263;69571;-76
2023/02/18 12:33:24;;;;;;;;;;;;;;;7.09;76.72;98307.80;105716;1257;72307;-72
2023/02/18 12:36:08;;;;;;;4.30;2.60;;;;;;;7.14;76.40;98312.90;105625;1258;62075;-74
2023/02/18 12:38:43;;;;;;;4.90;2.50;;;;;;;7.20;75.59;98320.85;105759;1259;61921;-71
2023/02/18 12:41:14;;;;;;;8.20;3.60;;;;;;;7.25;74.72;98306.36;105800;1257;71533;-71
2023/02/18 12:43:50;;;;;;;8.10;2.70;;;;;;;7.29;74.74;98301.89;105762;1261;67876;-73
2023/02/18 12:46:18;;;;;;;8.70;3.00;;;;;;;7.33;74.51;98305.76;105614;1261;73775;-70
2023/02/18 12:49:05;;;;;;;4.30;2.40;;;;;;;7.36;73.54;98309.08;105691;1257;59651;-70
2023/02/18 12:51:45;;;;;;;7.60;2.50;;;;;;;7.36;72.29;98323.79;105653;1258;61957;-72
2023/02/18 12:54:19;;;;;;;5.90;2.90;;;;;;;7.35;72.27;98328.55;105566;1260;73892;-71
2023/02/18 12:57:18;;;;;;;8.30;3.90;;;;;;;7.33;71.63;98336.61;105695;1257;68338;-74
2023/02/18 13:00:35;;;;;;;4.50;2.80;;;;;;;7.29;71.79;98346.92;105696;1257;72658;-74
2023/02/18 13:03:32;;;;;;;8.80;3.40;;;;;;;7.19;73.53;98360.66;105207;1263;62152;-74
2023/02/18 13:06:54;;;;;;;10.10;2.80;;;;;;;7.02;76.66;98367.16;105182;1265;59835;-78
2023/02/18 13:09:43;;;;;;;11.80;3.50;;;;;;;6.73;79.79;98368.36;105716;1259;74733;-74
2023/02/18 13:12:53;;;;;;;6.50;3.20;;;;;;;6.46;82.15;98377.53;105644;1262;67272;-75
2023/02/18 13:15:35;;;;;;;8.20;2.90;;;;;;;6.20;84.72;98365.63;105767;1262;71212;-77
2023/02/18 13:18:12;;;;;;;8.10;2.80;;;;;;;6.03;86.37;98360.29;106048;1257;62680;-75
2023/02/18 13:20:43;;;;;;;12.10;7.40;;;;;;;5.91;87.55;98367.23;105975;1265;60902;-76
2023/02/18 13:23:16;;;;;;;7.50;3.00;;;;;;;5.83;88.73;98368.01;106194;1262;73604;-77
2023/02/18 13:25:45;;;;;;;5.70;3.20;;;;;;;5.78;88.53;98380.02;105862;1257;69002;-72
2023/02/18 13:29:11;;;;;;;6.90;3.00;;;;;;;5.75;88.71;98375.72;105662;1257;73318;-70
2023/02/18 13:31:51;;;;;;;7.60;2.70;;;;;;;5.69;87.58;98399.95;105290;1265;61304;-71
2023/02/18 13:34:48;;;;;;;7.90;2.40;;;;;;;5.70;87.40;98369.01;105076;1261;60600;-73
2023/02/18 13:37:21;;;;;;;5.90;2.60;;;;;;;5.71;87.41;98388.30;105523;1261;75478;-72
2023/02/18 13:39:55;;;;;;;6.40;3.00;;;;;;;5.73;86.91;98388.80;105613;1262;67395;-72
2023/02/18 13:42:29;;;;;;;5.70;2.20;;;;;;;5.75;86.61;98384.20;105618;1262;72242;-72
2023/02/18 13:44:58;;;;;;;7.60;2.90;;;;;;;5.75;85.69;98386.55;105587;1257;60436;-74
2023/02/18 13:47:37;;;;;;;9.50;3.10;;;;;;;5.79;85.53;98404.35;105650;1257;60996;-72
2023/02/18 13:50:32;;;;;;;5.70;2.90;;;;;;;5.80;85.14;98401.98;105808;1256;74737;-77
2023/02/18 13:53:06;;;;;;;6.30;2.40;;;;;;;5.83;85.23;98406.36;105958;1262;68631;-77
2023/02/18 13:56:06;;;;;;;6.40;2.60;;;;;;;5.85;84.91;98423.57;105853;1259;74858;-78
2023/02/18 13:58:41;;;;;;;4.90;3.00;;;;;;;5.86;82.90;98428.34;105230;1257;1003811;-79
2023/02/18 14:01:10;;;;;;;7.80;3.60;;;;;;;5.87;82.84;98413.68;105945;1262;61281;-85
2023/02/18 14:03:41;;;;;;;10.30;3.80;;;;;;;5.86;82.76;98425.50;105690;1259;75715;-73
2023/02/18 14:06:39;;;;;;;6.70;2.60;;;;;;;5.85;81.93;98438.89;106115;1260;67336;-76